createdAt,value
2018-07-23T00:02:09.163Z,5.67
2018-07-23T00:04:38.300Z,8.57
2018-07-23T00:07:07.047Z,11.97
2018-07-23T00:09:36.353Z,7.80
2018-07-23T00:12:05.436Z,6.83
2018-07-23T00:14:34.416Z,7.63
2018-07-23T00:17:03.863Z,7.50
2018-07-23T00:19:32.935Z,7.03
2018-07-23T00:22:02.333Z,7.13
2018-07-23T00:24:31.340Z,10.40
2018-07-23T00:26:58.962Z,10.53
2018-07-23T00:29:27.928Z,9.60
2018-07-23T00:31:56.692Z,7.50
2018-07-23T00:34:25.547Z,9.20
2018-07-23T00:36:54.859Z,8.93
2018-07-23T00:39:24.001Z,9.40
2018-07-23T00:41:53.305Z,8.63
2018-07-23T00:44:22.495Z,9.00
2018-07-23T00:46:51.843Z,8.20
2018-07-23T00:49:20.684Z,10.77
2018-07-23T00:51:49.429Z,8.57
2018-07-23T00:54:19.313Z,10.50
2018-07-23T00:56:48.317Z,10.63
2018-07-23T00:59:17.017Z,7.07
2018-07-23T01:01:45.751Z,7.97
2018-07-23T01:04:14.490Z,8.70
2018-07-23T01:06:43.240Z,9.60
2018-07-23T01:09:12.230Z,13.47
2018-07-23T01:11:41.636Z,9.00
2018-07-23T01:14:11.175Z,8.43
2018-07-23T01:16:40.184Z,12.50
2018-07-23T01:19:08.948Z,8.40
2018-07-23T01:21:37.664Z,11.33
2018-07-23T01:24:06.863Z,6.83
2018-07-23T01:26:36.157Z,12.70
2018-07-23T01:29:05.199Z,6.93
2018-07-23T01:31:33.923Z,9.37
2018-07-23T01:34:02.867Z,10.33
2018-07-23T01:36:32.195Z,7.10
2018-07-23T01:39:01.142Z,8.03
2018-07-23T01:41:29.885Z,8.23
2018-07-23T01:43:58.915Z,7.33
2018-07-23T01:46:27.685Z,8.50
2018-07-23T01:48:57.293Z,9.13
2018-07-23T01:51:26.032Z,14.37
2018-07-23T01:53:54.799Z,10.73
2018-07-23T01:56:24.106Z,8.27
2018-07-23T01:58:52.828Z,8.77
2018-07-23T02:01:21.559Z,8.17
2018-07-23T02:03:50.555Z,10.00
2018-07-23T02:06:19.706Z,10.13
2018-07-23T02:08:49.251Z,8.07
2018-07-23T02:11:17.980Z,11.47
2018-07-23T02:13:47.426Z,8.63
2018-07-23T02:16:16.366Z,9.23
2018-07-23T02:18:45.087Z,7.70
2018-07-23T02:21:14.424Z,8.73
2018-07-23T02:23:43.190Z,11.07
2018-07-23T02:26:12.282Z,7.83
2018-07-23T02:28:41.626Z,10.03
2018-07-23T02:31:10.725Z,10.97
2018-07-23T02:33:39.491Z,11.67
2018-07-23T02:36:08.627Z,10.03
2018-07-23T02:38:37.728Z,11.03
2018-07-23T02:41:06.587Z,11.37
2018-07-23T02:43:35.285Z,8.70
2018-07-23T02:46:04.368Z,11.70
2018-07-23T02:48:33.393Z,12.50
2018-07-23T02:51:02.219Z,12.10
2018-07-23T02:53:30.919Z,11.70
2018-07-23T02:55:59.652Z,11.40
2018-07-23T02:58:28.694Z,11.30
2018-07-23T03:00:58.437Z,11.47
2018-07-23T03:03:27.401Z,11.90
2018-07-23T03:05:56.277Z,11.40
2018-07-23T03:08:25.650Z,11.73
2018-07-23T03:10:54.773Z,13.90
2018-07-23T03:13:24.134Z,12.60
2018-07-23T03:15:53.438Z,15.37
2018-07-23T03:18:22.653Z,10.77
2018-07-23T03:20:51.444Z,12.23
2018-07-23T03:23:20.177Z,19.23
2018-07-23T03:25:49.570Z,12.20
2018-07-23T03:28:18.882Z,9.40
2018-07-23T03:30:48.284Z,10.37
2018-07-23T03:33:17.345Z,12.33
2018-07-23T03:35:46.077Z,15.73
2018-07-23T03:38:14.788Z,13.43
2018-07-23T03:40:43.827Z,11.60
2018-07-23T03:43:12.926Z,10.77
2018-07-23T03:45:41.710Z,14.20
2018-07-23T03:48:10.770Z,18.53
2018-07-23T03:50:39.796Z,14.40
2018-07-23T03:53:08.831Z,15.07
2018-07-23T03:55:38.145Z,14.50
2018-07-23T03:58:07.507Z,13.57
2018-07-23T04:00:36.243Z,12.70
2018-07-23T04:03:05.787Z,14.67
2018-07-23T04:05:34.541Z,19.00
2018-07-23T04:08:04.069Z,16.93
2018-07-23T04:10:33.536Z,17.70
2018-07-23T04:13:02.551Z,18.93
2018-07-23T04:15:31.338Z,21.00
2018-07-23T04:18:03.888Z,18.23
2018-07-23T04:20:35.319Z,19.03
2018-07-23T04:23:05.191Z,16.50
2018-07-23T04:25:34.472Z,15.93
2018-07-23T04:28:03.426Z,13.63
2018-07-23T04:30:32.148Z,16.20
2018-07-23T04:33:00.875Z,13.10
2018-07-23T04:35:30.217Z,14.57
2018-07-23T04:37:58.931Z,18.80
2018-07-23T04:40:27.731Z,15.07
2018-07-23T04:42:56.486Z,18.47
2018-07-23T04:45:26.170Z,18.00
2018-07-23T04:47:55.265Z,15.40
2018-07-23T04:50:24.240Z,13.50
2018-07-23T04:52:53.010Z,14.50
2018-07-23T04:55:22.319Z,37.60
2018-07-23T04:57:51.465Z,17.70
2018-07-23T05:00:20.222Z,13.50
2018-07-23T05:02:49.044Z,16.13
2018-07-23T05:05:18.217Z,19.40
2018-07-23T05:07:47.624Z,33.47
2018-07-23T05:10:17.664Z,17.70
2018-07-23T05:12:46.737Z,17.13
2018-07-23T05:15:15.524Z,23.30
2018-07-23T05:17:45.245Z,18.33
2018-07-23T05:20:14.017Z,17.50
2018-07-23T05:22:43.663Z,21.70
2018-07-23T05:25:12.728Z,18.53
2018-07-23T05:27:41.718Z,17.50
2018-07-23T05:30:10.551Z,20.13
2018-07-23T05:32:39.322Z,20.20
2018-07-23T05:35:08.137Z,22.27
2018-07-23T05:37:37.731Z,21.50
2018-07-23T05:40:06.942Z,25.20
2018-07-23T05:42:35.978Z,22.40
2018-07-23T05:45:05.560Z,25.37
2018-07-23T05:47:34.616Z,26.43
2018-07-23T05:50:03.673Z,26.43
2018-07-23T05:52:32.479Z,36.73
2018-07-23T05:55:01.797Z,29.13
2018-07-23T05:57:30.676Z,27.60
2018-07-23T05:59:59.803Z,26.43
2018-07-23T06:02:28.972Z,24.80
2018-07-23T06:04:57.734Z,22.23
2018-07-23T06:07:26.483Z,21.37
2018-07-23T06:09:55.671Z,20.90
2018-07-23T06:12:24.441Z,24.50
2018-07-23T06:14:53.456Z,20.50
2018-07-23T06:17:22.265Z,20.33
2018-07-23T06:19:51.024Z,33.67
2018-07-23T06:22:19.807Z,22.93
2018-07-23T06:24:48.557Z,21.30
2018-07-23T06:27:17.990Z,24.50
2018-07-23T06:29:46.802Z,19.80
2018-07-23T06:32:15.581Z,18.90
2018-07-23T06:34:44.801Z,18.07
2018-07-23T06:37:14.035Z,19.37
2018-07-23T06:39:42.877Z,19.67
2018-07-23T06:42:12.808Z,20.93
2018-07-23T06:44:41.571Z,17.70
2018-07-23T06:47:10.309Z,17.73
2018-07-23T06:49:39.305Z,21.70
2018-07-23T06:52:08.375Z,16.73
2018-07-23T06:54:37.361Z,20.03
2018-07-23T06:57:07.010Z,17.37
2018-07-23T06:59:36.862Z,14.60
2018-07-23T07:02:05.891Z,16.67
2018-07-23T07:04:34.602Z,16.00
2018-07-23T07:07:03.641Z,22.10
2018-07-23T07:09:32.371Z,15.97
2018-07-23T07:12:01.119Z,15.90
2018-07-23T07:14:29.890Z,18.67
2018-07-23T07:16:58.963Z,13.57
2018-07-23T07:19:27.716Z,24.90
2018-07-23T07:21:56.513Z,16.60
2018-07-23T07:24:25.853Z,16.40
2018-07-23T07:26:54.667Z,18.67
2018-07-23T07:29:23.823Z,17.00
2018-07-23T07:31:52.602Z,14.27
2018-07-23T07:34:21.372Z,14.53
2018-07-23T07:36:50.874Z,16.50
2018-07-23T07:39:19.605Z,14.67
2018-07-23T07:41:49.212Z,14.30
2018-07-23T07:44:18.338Z,15.90
2018-07-23T07:46:47.392Z,13.20
2018-07-23T07:49:16.804Z,13.20
2018-07-23T07:51:45.898Z,17.43
2018-07-23T07:54:14.930Z,12.63
2018-07-23T07:56:44.173Z,12.00
2018-07-23T07:59:13.281Z,9.10
2018-07-23T08:01:42.001Z,12.23
2018-07-23T08:04:10.711Z,14.57
2018-07-23T08:06:39.528Z,11.80
2018-07-23T08:09:09.116Z,12.47
2018-07-23T08:11:38.380Z,10.63
2018-07-23T08:14:07.137Z,8.33
2018-07-23T08:16:36.500Z,9.13
2018-07-23T08:19:05.576Z,9.70
2018-07-23T08:21:34.347Z,13.00
2018-07-23T08:24:03.432Z,12.57
2018-07-23T08:26:32.470Z,10.83
2018-07-23T08:29:01.185Z,12.77
2018-07-23T08:31:30.381Z,11.20
2018-07-23T08:33:59.582Z,12.43
2018-07-23T08:36:28.609Z,12.40
2018-07-23T08:38:57.676Z,9.50
2018-07-23T08:41:26.838Z,12.90
2018-07-23T08:43:55.881Z,11.00
2018-07-23T08:46:24.595Z,9.90
2018-07-23T08:48:53.896Z,12.57
2018-07-23T08:51:22.708Z,11.20
2018-07-23T08:53:52.028Z,11.80
2018-07-23T08:56:20.775Z,18.30
2018-07-23T08:58:49.839Z,13.03
2018-07-23T09:01:19.207Z,10.73
2018-07-23T09:03:48.051Z,13.20
2018-07-23T09:06:17.314Z,9.90
2018-07-23T09:08:46.971Z,10.87
2018-07-23T09:11:15.759Z,10.03
2018-07-23T09:13:45.429Z,12.77
2018-07-23T09:16:14.887Z,14.83
2018-07-23T09:18:44.153Z,13.33
2018-07-23T09:21:13.213Z,13.67
2018-07-23T09:23:42.310Z,13.27
2018-07-23T09:26:11.410Z,9.13
2018-07-23T09:28:40.515Z,9.80
2018-07-23T09:31:09.382Z,10.20
2018-07-23T09:33:38.313Z,7.57
2018-07-23T09:36:07.635Z,6.90
2018-07-23T09:38:37.117Z,8.33
2018-07-23T09:41:06.357Z,7.40
2018-07-23T09:43:35.138Z,7.33
2018-07-23T09:46:03.905Z,6.60
2018-07-23T09:48:32.873Z,7.97
2018-07-23T09:51:01.623Z,5.43
2018-07-23T09:53:30.327Z,5.43
2018-07-23T09:55:59.450Z,6.13
2018-07-23T09:58:29.315Z,5.10
2018-07-23T10:01:02.835Z,6.90
2018-07-23T10:03:31.957Z,4.30
2018-07-23T10:06:00.710Z,5.90
2018-07-23T10:08:29.990Z,9.83
2018-07-23T10:10:59.047Z,5.17
2018-07-23T10:13:28.193Z,5.40
2018-07-23T10:15:57.873Z,5.70
2018-07-23T10:18:26.581Z,5.33
2018-07-23T10:20:55.647Z,7.57
2018-07-23T10:23:24.918Z,3.67
2018-07-23T10:25:53.982Z,5.90
2018-07-23T10:28:23.459Z,11.70
2018-07-23T10:30:52.830Z,3.70
2018-07-23T10:33:21.889Z,7.30
2018-07-23T10:35:50.887Z,5.63
2018-07-23T10:38:19.615Z,3.63
2018-07-23T10:40:52.255Z,4.83
2018-07-23T10:43:21.369Z,5.60
2018-07-23T10:45:51.757Z,5.47
2018-07-23T10:48:20.490Z,6.27
2018-07-23T10:50:49.596Z,7.43
2018-07-23T10:53:18.961Z,7.30
2018-07-23T10:55:48.300Z,4.80
2018-07-23T10:58:17.023Z,3.80
2018-07-23T11:00:45.739Z,7.03
2018-07-23T11:03:15.350Z,6.43
2018-07-23T11:05:44.356Z,5.33
2018-07-23T11:08:13.084Z,4.97
2018-07-23T11:10:41.819Z,5.40
2018-07-23T11:13:10.511Z,5.30
2018-07-23T11:15:40.088Z,4.50
2018-07-23T11:18:08.815Z,5.80
2018-07-23T11:20:37.828Z,4.70
2018-07-23T11:23:07.104Z,6.00
2018-07-23T11:25:40.135Z,4.60
2018-07-23T11:28:05.822Z,4.20
2018-07-23T11:30:34.808Z,5.77
2018-07-23T11:33:04.709Z,5.20
2018-07-23T11:35:33.443Z,4.60
2018-07-23T11:38:02.808Z,6.27
2018-07-23T11:40:32.170Z,6.17
2018-07-23T11:43:01.450Z,5.87
2018-07-23T11:45:30.164Z,4.57
2018-07-23T11:47:59.189Z,4.77
2018-07-23T11:50:27.919Z,4.43
2018-07-23T11:52:57.031Z,5.23
2018-07-23T11:55:25.779Z,6.17
2018-07-23T11:57:54.662Z,5.00
2018-07-23T12:00:24.036Z,18.13
2018-07-23T12:02:54.245Z,4.53
2018-07-23T12:05:23.571Z,3.97
2018-07-23T12:07:52.384Z,3.53
2018-07-23T12:10:21.376Z,7.70
2018-07-23T12:12:50.650Z,4.77
2018-07-23T12:15:19.652Z,6.20
2018-07-23T12:17:48.732Z,5.07
2018-07-23T12:20:17.818Z,4.17
2018-07-23T12:22:46.822Z,5.43
2018-07-23T12:25:15.598Z,4.37
2018-07-23T12:27:44.634Z,4.40
2018-07-23T12:30:13.711Z,4.40
2018-07-23T12:32:42.815Z,3.77
2018-07-23T12:35:11.819Z,4.33
2018-07-23T12:37:40.869Z,4.33
2018-07-23T12:40:10.833Z,6.03
2018-07-23T12:42:40.010Z,4.20
2018-07-23T12:45:08.985Z,3.97
2018-07-23T12:47:38.403Z,6.23
2018-07-23T12:50:07.411Z,4.03
2018-07-23T12:52:36.176Z,4.60
2018-07-23T12:55:05.349Z,5.80
2018-07-23T12:57:34.474Z,6.80
2018-07-23T13:00:03.569Z,4.47
2018-07-23T13:02:32.292Z,4.67
2018-07-23T13:05:01.496Z,6.23
2018-07-23T13:07:30.241Z,4.33
2018-07-23T13:09:59.047Z,6.33
2018-07-23T13:12:28.552Z,3.63
2018-07-23T13:14:57.596Z,7.03
2018-07-23T13:17:26.449Z,3.53
2018-07-23T13:19:55.358Z,8.47
2018-07-23T13:22:24.438Z,4.13
2018-07-23T13:24:53.581Z,5.20
2018-07-23T13:27:22.329Z,4.30
2018-07-23T13:29:51.595Z,8.40
2018-07-23T13:32:20.380Z,4.10
2018-07-23T13:34:49.457Z,9.17
2018-07-23T13:37:18.608Z,15.00
2018-07-23T13:39:47.323Z,7.27
2018-07-23T13:42:16.665Z,7.07
2018-07-23T13:44:45.887Z,4.00
2018-07-23T13:47:14.990Z,4.13
2018-07-23T13:49:44.106Z,5.70
2018-07-23T13:52:13.142Z,3.80
2018-07-23T13:54:41.905Z,4.10
2018-07-23T13:57:11.085Z,4.23
2018-07-23T13:59:40.573Z,5.70
2018-07-23T14:02:09.938Z,8.27
2018-07-23T14:04:39.074Z,3.50
2018-07-23T14:07:07.857Z,4.53
2018-07-23T14:09:36.942Z,6.17
2018-07-23T14:12:06.176Z,2.87
2018-07-23T14:14:35.375Z,10.03
2018-07-23T14:17:04.447Z,2.73
2018-07-23T14:19:33.420Z,2.40
2018-07-23T14:22:02.748Z,6.63
2018-07-23T14:24:31.769Z,2.50
2018-07-23T14:27:01.144Z,4.40
2018-07-23T14:29:30.165Z,3.20
2018-07-23T14:31:58.923Z,2.80
2018-07-23T14:34:27.882Z,5.73
2018-07-23T14:36:56.977Z,5.63
2018-07-23T14:39:26.111Z,2.97
2018-07-23T14:41:54.846Z,3.57
2018-07-23T14:44:23.579Z,5.03
2018-07-23T14:46:53.021Z,1.93
2018-07-23T14:49:22.121Z,2.50
2018-07-23T14:51:50.861Z,2.67
2018-07-23T14:54:20.189Z,2.83
2018-07-23T14:56:49.436Z,2.37
2018-07-23T14:59:18.480Z,3.27
2018-07-23T15:01:47.488Z,2.40
2018-07-23T15:04:16.784Z,3.10
2018-07-23T15:06:45.543Z,3.77
2018-07-23T15:09:14.258Z,2.23
2018-07-23T15:11:43.112Z,3.30
2018-07-23T15:14:11.881Z,2.80
2018-07-23T15:16:41.319Z,4.03
2018-07-23T15:19:10.439Z,2.70
2018-07-23T15:21:39.773Z,3.73
2018-07-23T15:24:09.374Z,2.73
2018-07-23T15:26:38.161Z,4.73
2018-07-23T15:29:07.290Z,3.30
2018-07-23T15:31:36.662Z,2.90
2018-07-23T15:34:05.485Z,3.70
2018-07-23T15:36:34.791Z,2.93
2018-07-23T15:39:03.827Z,2.57
2018-07-23T15:41:32.576Z,3.10
2018-07-23T15:44:01.980Z,1.90
2018-07-23T15:46:31.002Z,2.80
2018-07-23T15:48:59.714Z,4.37
2018-07-23T15:51:28.456Z,3.03
2018-07-23T15:53:57.619Z,2.63
2018-07-23T15:56:26.703Z,1.83
2018-07-23T15:58:56.037Z,2.40
2018-07-23T16:01:25.071Z,2.57
2018-07-23T16:03:54.434Z,2.93
2018-07-23T16:06:23.712Z,2.63
2018-07-23T16:08:53.117Z,3.30
2018-07-23T16:11:22.259Z,2.77
2018-07-23T16:13:51.375Z,3.77
2018-07-23T16:16:20.427Z,7.50
2018-07-23T16:18:49.601Z,2.77
2018-07-23T16:21:18.393Z,2.40
2018-07-23T16:23:47.466Z,2.30
2018-07-23T16:26:16.866Z,5.63
2018-07-23T16:28:46.193Z,1.80
2018-07-23T16:31:15.590Z,1.70
2018-07-23T16:33:44.942Z,4.13
2018-07-23T16:36:13.836Z,2.30
2018-07-23T16:38:42.536Z,3.43
2018-07-23T16:41:11.406Z,4.87
2018-07-23T16:43:40.215Z,2.27
2018-07-23T16:46:09.358Z,3.43
2018-07-23T16:48:39.049Z,2.23
2018-07-23T16:51:07.806Z,2.43
2018-07-23T16:53:37.458Z,2.47
2018-07-23T16:56:06.205Z,3.47
2018-07-23T16:58:35.193Z,3.10
2018-07-23T17:01:03.944Z,5.40
2018-07-23T17:03:32.782Z,3.10
2018-07-23T17:06:01.587Z,2.33
2018-07-23T17:08:30.961Z,8.57
2018-07-23T17:11:00.704Z,2.27
2018-07-23T17:13:29.680Z,1.90
2018-07-23T17:15:58.722Z,3.40
2018-07-23T17:18:28.089Z,3.90
2018-07-23T17:20:56.784Z,4.13
2018-07-23T17:23:25.848Z,6.80
2018-07-23T17:25:55.145Z,7.67
2018-07-23T17:28:24.125Z,2.33
2018-07-23T17:30:52.858Z,11.37
2018-07-23T17:33:22.241Z,4.10
2018-07-23T17:35:51.292Z,3.43
2018-07-23T17:38:20.384Z,4.10
2018-07-23T17:40:49.831Z,7.13
2018-07-23T17:43:19.204Z,2.50
2018-07-23T17:45:48.037Z,2.97
2018-07-23T17:48:16.789Z,4.80
2018-07-23T17:50:45.581Z,3.13
2018-07-23T17:53:15.090Z,4.13
2018-07-23T17:55:44.436Z,12.20
2018-07-23T17:58:13.689Z,6.03
2018-07-23T18:00:42.733Z,2.90
2018-07-23T18:03:11.689Z,2.90
2018-07-23T18:05:40.504Z,2.97
2018-07-23T18:08:09.243Z,3.80
2018-07-23T18:10:38.385Z,3.10
2018-07-23T18:13:08.240Z,7.93
2018-07-23T18:15:37.328Z,2.40
2018-07-23T18:18:06.036Z,3.27
2018-07-23T18:20:34.833Z,3.77
2018-07-23T18:23:03.764Z,7.37
2018-07-23T18:25:33.293Z,9.13
2018-07-23T18:28:02.357Z,6.43
2018-07-23T18:30:31.115Z,9.37
2018-07-23T18:33:00.494Z,3.43
2018-07-23T18:35:29.231Z,5.83
2018-07-23T18:37:58.176Z,12.70
2018-07-23T18:40:27.215Z,7.30
2018-07-23T18:42:56.174Z,4.60
2018-07-23T18:45:25.942Z,8.17
2018-07-23T18:47:54.988Z,8.33
2018-07-23T18:50:24.000Z,6.23
2018-07-23T18:52:53.307Z,8.67
2018-07-23T18:55:22.313Z,6.17
2018-07-23T18:57:51.728Z,3.73
2018-07-23T19:00:20.874Z,14.67
2018-07-23T19:02:50.249Z,7.90
2018-07-23T19:05:19.027Z,6.50
2018-07-23T19:07:48.319Z,5.70
2018-07-23T19:10:17.378Z,8.87
2018-07-23T19:12:46.140Z,9.50
2018-07-23T19:15:14.997Z,7.33
2018-07-23T19:17:44.109Z,5.00
2018-07-23T19:20:12.905Z,7.03
2018-07-23T19:22:43.130Z,9.93
2018-07-23T19:25:11.887Z,4.40
2018-07-23T19:27:41.177Z,4.60
2018-07-23T19:30:10.215Z,4.97
2018-07-23T19:32:39.251Z,10.93
2018-07-23T19:35:08.374Z,6.33
2018-07-23T19:37:37.422Z,13.00
2018-07-23T19:40:06.524Z,7.90
2018-07-23T19:42:35.664Z,4.67
2018-07-23T19:45:04.424Z,7.40
2018-07-23T19:47:33.847Z,7.80
2018-07-23T19:50:03.297Z,7.40
2018-07-23T19:52:32.009Z,4.73
2018-07-23T19:55:00.962Z,8.10
2018-07-23T19:57:29.750Z,10.23
2018-07-23T19:59:59.102Z,6.30
2018-07-23T20:02:28.520Z,8.40
2018-07-23T20:04:57.729Z,5.43
2018-07-23T20:07:26.839Z,5.80
2018-07-23T20:09:56.122Z,8.37
2018-07-23T20:12:25.180Z,20.13
2018-07-23T20:14:54.370Z,5.40
2018-07-23T20:17:23.099Z,8.77
2018-07-23T20:19:51.815Z,9.10
2018-07-23T20:22:20.915Z,6.33
2018-07-23T20:24:49.944Z,10.07
2018-07-23T20:27:19.626Z,7.80
2018-07-23T20:29:48.367Z,8.23
2018-07-23T20:32:17.595Z,10.63
2018-07-23T20:34:47.043Z,8.37
2018-07-23T20:37:15.891Z,10.83
2018-07-23T20:39:44.801Z,6.80
2018-07-23T20:42:14.203Z,6.87
2018-07-23T20:44:43.275Z,9.77
2018-07-23T20:47:12.295Z,7.03
2018-07-23T20:49:41.728Z,8.20
2018-07-23T20:52:10.459Z,7.50
2018-07-23T20:54:39.786Z,9.00
2018-07-23T20:57:08.517Z,19.20
2018-07-23T20:59:37.382Z,10.43
2018-07-23T21:02:06.262Z,7.23
2018-07-23T21:04:35.578Z,6.53
2018-07-23T21:07:04.670Z,13.80
2018-07-23T21:09:33.633Z,10.40
2018-07-23T21:12:02.407Z,11.50
2018-07-23T21:14:31.493Z,18.90
2018-07-23T21:17:00.562Z,12.60
2018-07-23T21:19:29.440Z,8.80
2018-07-23T21:21:58.409Z,10.27
2018-07-23T21:24:27.448Z,11.70
2018-07-23T21:26:56.217Z,9.67
2018-07-23T21:29:25.645Z,11.17
2018-07-23T21:31:55.004Z,11.30
2018-07-23T21:34:23.841Z,9.60
2018-07-23T21:36:52.604Z,14.17
2018-07-23T21:39:21.796Z,11.40
2018-07-23T21:41:50.884Z,10.57
2018-07-23T21:44:20.092Z,18.50
2018-07-23T21:46:49.157Z,19.33
2018-07-23T21:49:18.257Z,12.23
2018-07-23T21:51:47.027Z,8.77
2018-07-23T21:54:16.235Z,14.53
2018-07-23T21:56:45.094Z,9.50
2018-07-23T21:59:14.453Z,13.30
2018-07-23T22:01:43.273Z,9.53
2018-07-23T22:04:12.426Z,9.63
2018-07-23T22:06:41.666Z,9.80
2018-07-23T22:09:10.709Z,10.90
2018-07-23T22:11:39.793Z,16.27
2018-07-23T22:14:09.490Z,9.77
2018-07-23T22:16:38.957Z,10.43
2018-07-23T22:19:07.965Z,13.70
2018-07-23T22:21:37.161Z,12.10
2018-07-23T22:24:06.019Z,27.83
2018-07-23T22:26:34.822Z,19.00
2018-07-23T22:29:04.056Z,17.70
2018-07-23T22:31:32.913Z,23.77
2018-07-23T22:34:02.055Z,10.10
2018-07-23T22:36:30.916Z,13.90
2018-07-23T22:38:59.704Z,13.47
2018-07-23T22:41:28.771Z,14.57
2018-07-23T22:43:57.784Z,13.07
2018-07-23T22:46:26.881Z,10.60
2018-07-23T22:48:55.896Z,12.93
2018-07-23T22:51:24.656Z,21.10
2018-07-23T22:53:53.759Z,21.93
2018-07-23T22:56:22.650Z,12.97
2018-07-23T22:58:51.491Z,16.00
2018-07-23T23:01:20.691Z,17.37
2018-07-23T23:03:49.513Z,16.20
2018-07-23T23:06:18.364Z,17.43
2018-07-23T23:08:47.572Z,12.40
2018-07-23T23:11:16.313Z,19.23
2018-07-23T23:13:45.116Z,17.33
2018-07-23T23:16:13.933Z,15.97
2018-07-23T23:18:42.733Z,17.10
2018-07-23T23:21:11.952Z,18.90
2018-07-23T23:23:41.037Z,20.70
2018-07-23T23:26:09.816Z,22.80
2018-07-23T23:28:38.975Z,16.37
2018-07-23T23:31:07.806Z,18.87
2018-07-23T23:33:37.205Z,18.97
2018-07-23T23:36:06.319Z,20.50
2018-07-23T23:38:35.076Z,21.63
2018-07-23T23:41:04.012Z,18.70
2018-07-23T23:43:33.239Z,22.80
2018-07-23T23:46:02.127Z,18.90
2018-07-23T23:48:31.049Z,20.43
2018-07-23T23:51:00.204Z,17.60
2018-07-23T23:53:29.495Z,21.17
2018-07-23T23:55:58.528Z,20.67
2018-07-23T23:58:27.571Z,19.30
